»·PEaware :: FDX1613 KLAS-KSAN

FDX1613 :: KLAS-KSAN

FLIGHT INFORMATION

Flight Status: Arrived
Operator:
Federal Express
More flights by this operator :: More flights under this callsign
Pilot: Clay B. (17061)
Aircraft: BOEING 757-200
(B752)
More flights by this aircraft type
Origin: KLAS McCarran Intl
United States
Destination: KSAN San Diego Intl-Lindbergh
United States
More flights between these airports :: More routes between these airports
Route: +BOACH8 LVELL LUCKI1
File this flight plan on PilotEdge
Remarks: PBN / A1B3B4B5C4D4O4 DOF / 171203 REG / N538SB PER / D RMK / TCAS SIMBRIEF
Altitude:
(Current/Filed)
32,000ft
Speed:
(Current/Filed)
454kts
Departed: 03-Dec-17 11:35 AM
Arrived: 03-Dec-17 12:26 PM
Distance/Time
Traveled:
225nm/0:51
Distance/Time
To Go:
Arrived

Flight Plot

Page will automatically refresh every two minutes.

Flight plan parsing failed; only flown route is shown


Map Options




Map Legend


Flown Route
Filed Route
Departure Airport
Arrival Airport
Navaid (VOR, NDB)
Fix

Horizontal Profiles

Position Reports

Time Latitude Longitude Heading Altitude Ground
Speed
03-Dec-17 11:22 36.083212 -115.170125 89 2171ft 0kts
03-Dec-17 11:23 36.083212 -115.170125 89 2171ft 0kts
03-Dec-17 11:24 36.083212 -115.170125 89 2171ft 0kts
03-Dec-17 11:25 36.083212 -115.170125 89 2171ft 0kts
03-Dec-17 11:26 36.083212 -115.170125 89 2171ft 0kts
03-Dec-17 11:27 36.083212 -115.170125 89 2171ft 0kts
03-Dec-17 11:28 36.083212 -115.170125 89 2171ft 0kts
03-Dec-17 11:29 36.083212 -115.170125 89 2171ft 0kts
03-Dec-17 11:30 36.083212 -115.170125 89 2171ft 0kts
03-Dec-17 11:31 36.083212 -115.170125 89 2171ft 0kts
03-Dec-17 11:32 36.083212 -115.170125 89 2171ft 0kts
03-Dec-17 11:33 36.083212 -115.170125 89 2171ft 0kts
03-Dec-17 11:34 36.083212 -115.170125 89 2171ft 0kts
03-Dec-17 11:35 36.083237 -115.169357 78 2169ft 10kts
03-Dec-17 11:36 36.085825 -115.166834 41 2156ft 15kts
03-Dec-17 11:37 36.090406 -115.164190 23 2137ft 20kts
03-Dec-17 11:38 36.096417 -115.160727 24 2111ft 26kts
03-Dec-17 11:39 36.099167 -115.158180 115 2098ft 2kts
03-Dec-17 11:40 36.092967 -115.160303 205 2116ft 91kts
03-Dec-17 11:41 36.057629 -115.171402 211 3799ft 152kts
03-Dec-17 11:42 36.072130 -115.208555 345 5656ft 240kts
03-Dec-17 11:43 36.143872 -115.183633 54 8601ft 313kts
03-Dec-17 11:44 36.127525 -115.085711 145 10873ft 347kts
03-Dec-17 11:45 36.044689 -115.062338 207 14117ft 327kts
03-Dec-17 11:46 35.969581 -115.121842 206 17470ft 340kts
03-Dec-17 11:47 35.880707 -115.172010 212 18975ft 387kts
03-Dec-17 11:48 35.784662 -115.224603 207 19510ft 359kts
03-Dec-17 11:49 35.697248 -115.272268 213 20304ft 347kts
03-Dec-17 11:50 35.601691 -115.305771 201 22828ft 370kts
03-Dec-17 11:51 35.500505 -115.332569 202 25108ft 379kts
03-Dec-17 11:52 35.399808 -115.369015 204 27140ft 386kts
03-Dec-17 11:53 35.295708 -115.398570 203 28938ft 396kts
03-Dec-17 11:54 35.186930 -115.427490 203 30523ft 405kts
03-Dec-17 11:55 35.076767 -115.455933 202 32011ft 413kts
03-Dec-17 11:56 34.959834 -115.485654 201 32040ft 441kts
03-Dec-17 11:57 34.842726 -115.506675 197 32054ft 425kts
03-Dec-17 11:58 34.729155 -115.526252 198 32068ft 412kts
03-Dec-17 11:59 34.614158 -115.546306 198 32119ft 424kts
03-Dec-17 12:00 34.497316 -115.566475 198 32132ft 416kts
03-Dec-17 12:01 34.382930 -115.586309 198 32135ft 416kts
03-Dec-17 12:02 34.268350 -115.606090 198 32133ft 417kts
03-Dec-17 12:03 34.159363 -115.641268 210 32132ft 401kts
03-Dec-17 12:04 34.056024 -115.690045 209 32141ft 402kts
03-Dec-17 12:05 33.954691 -115.736658 209 31061ft 382kts
03-Dec-17 12:06 33.856487 -115.783815 210 29323ft 379kts
03-Dec-17 12:07 33.760202 -115.830879 209 27630ft 372kts
03-Dec-17 12:08 33.665035 -115.876541 208 25923ft 366kts
03-Dec-17 12:09 33.571373 -115.920492 208 24263ft 360kts
03-Dec-17 12:10 33.495197 -115.987416 237 24012ft 341kts
03-Dec-17 12:11 33.438755 -116.081214 237 21637ft 354kts
03-Dec-17 12:12 33.384474 -116.172093 237 19951ft 330kts
03-Dec-17 12:13 33.326625 -116.255845 214 18261ft 336kts
03-Dec-17 12:14 33.244039 -116.306307 211 16592ft 332kts
03-Dec-17 12:15 33.161838 -116.354971 210 15075ft 328kts
03-Dec-17 12:16 33.080759 -116.402990 209 13678ft 325kts
03-Dec-17 12:17 33.001598 -116.452896 221 12288ft 317kts
03-Dec-17 12:18 32.934803 -116.518737 221 10936ft 310kts
03-Dec-17 12:19 32.881193 -116.572262 220 10269ft 288kts
03-Dec-17 12:20 32.820953 -116.650609 237 8682ft 276kts
03-Dec-17 12:21 32.784641 -116.723640 238 7075ft 267kts
03-Dec-17 12:22 32.749159 -116.783245 229 5982ft 261kts
03-Dec-17 12:23 32.699920 -116.862263 236 5046ft 230kts
03-Dec-17 12:24 32.674751 -116.930298 255 4497ft 222kts
03-Dec-17 12:25 32.683793 -116.982385 287 4406ft 178kts
03-Dec-17 12:26 32.699822 -117.046479 286 2892ft 162kts
03-Dec-17 12:27 32.707964 -117.083981 282 2133ft 139kts
03-Dec-17 12:28 32.716209 -117.118467 286 1576ft 146kts
03-Dec-17 12:29 32.726405 -117.160631 286 566ft 135kts
03-Dec-17 12:30 32.734756 -117.194625 287 22ft 51kts
03-Dec-17 12:31 32.735786 -117.202146 195 21ft 3kts
03-Dec-17 12:32 32.734332 -117.200657 208 21ft 5kts
03-Dec-17 12:33 32.734159 -117.200770 209 21ft 0kts
03-Dec-17 12:34 32.734159 -117.200770 209 21ft 0kts

Navigation Log

Ident Type
Flight plan parsing failed, navigation log unavailable